Time;durP1;ratioP1;P1;durP2;ratioP2;P2;SDS_P1;SDS_P2;PMS_P1;PMS_P2;Temp;Humidity;BMP_temperature;BMP_pressure;BME280_temperature;BME280_humidity;BME280_pressure;Samples;Min_cycle;Max_cycle;Signal;HPM_P1;HPM_P2
2020/01/07 00:00:40;;;;;;;4.35;2.85;;;;;;;-2.57;64.65137;95895.04;;;;
2020/01/07 00:01:41;;;;;;;4.35;2.85;;;;;;;-2.57;64.65137;95895.04;;;;
2020/01/07 00:02:41;;;;;;;4.35;2.85;;;;;;;-2.57;64.65137;95895.04;;;;
2020/01/07 00:03:42;;;;;;;4.35;2.85;;;;;;;-2.57;64.65137;95895.04;;;;
2020/01/07 00:04:42;;;;;;;4.35;2.85;;;;;;;-2.57;64.65137;95895.04;;;;
2020/01/07 00:05:43;;;;;;;4.35;2.85;;;;;;;-2.57;64.65137;95895.04;;;;
2020/01/07 00:06:43;;;;;;;4.35;2.85;;;;;;;-2.57;64.65137;95895.04;;;;
2020/01/07 00:07:44;;;;;;;4.35;2.85;;;;;;;-2.57;64.65137;95895.04;;;;
2020/01/07 00:08:44;;;;;;;4.35;2.85;;;;;;;-2.57;64.65137;95895.04;;;;
2020/01/07 00:09:44;;;;;;;4.35;2.85;;;;;;;-2.57;64.65137;95895.04;;;;
2020/01/07 00:10:45;;;;;;;3.400001;2.55;;;;;;;-2.59;64.81543;95895.67;;;;
2020/01/07 00:11:46;;;;;;;3.400001;2.55;;;;;;;-2.59;64.81543;95895.67;;;;
2020/01/07 00:12:46;;;;;;;3.400001;2.55;;;;;;;-2.59;64.81543;95895.67;;;;
2020/01/07 00:13:47;;;;;;;3.400001;2.55;;;;;;;-2.59;64.81543;95895.67;;;;
2020/01/07 00:14:47;;;;;;;3.400001;2.55;;;;;;;-2.59;64.81543;95895.67;;;;
2020/01/07 00:15:48;;;;;;;3.400001;2.55;;;;;;;-2.59;64.81543;95895.67;;;;
2020/01/07 00:16:48;;;;;;;3.400001;2.55;;;;;;;-2.59;64.81543;95895.67;;;;
2020/01/07 00:17:49;;;;;;;3.400001;2.55;;;;;;;-2.59;64.81543;95895.67;;;;
2020/01/07 00:19:01;;;;;;;3.400001;2.55;;;;;;;-2.59;64.81543;95895.67;;;;
2020/01/07 00:20:02;;;;;;;3.400001;2.55;;;;;;;-2.59;64.81543;95895.67;;;;
2020/01/07 00:21:03;;;;;;;4.099999;2.45;;;;;;;-2.66;64.84668;95895;;;;
2020/01/07 00:22:03;;;;;;;4.099999;2.45;;;;;;;-2.66;64.84668;95895;;;;
2020/01/07 00:23:04;;;;;;;4.099999;2.45;;;;;;;-2.66;64.84668;95895;;;;
2020/01/07 00:24:05;;;;;;;4.099999;2.45;;;;;;;-2.66;64.84668;95895;;;;
2020/01/07 00:25:05;;;;;;;4.099999;2.45;;;;;;;-2.66;64.84668;95895;;;;
2020/01/07 00:26:06;;;;;;;4.099999;2.45;;;;;;;-2.66;64.84668;95895;;;;
2020/01/07 00:27:06;;;;;;;4.099999;2.45;;;;;;;-2.66;64.84668;95895;;;;
2020/01/07 00:28:07;;;;;;;4.099999;2.45;;;;;;;-2.66;64.84668;95895;;;;
2020/01/07 00:29:07;;;;;;;4.099999;2.45;;;;;;;-2.66;64.84668;95895;;;;
2020/01/07 00:30:08;;;;;;;4.099999;2.45;;;;;;;-2.66;64.84668;95895;;;;
2020/01/07 00:31:08;;;;;;;5.45;2.7;;;;;;;-2.64;64.99512;95890.41;;;;
2020/01/07 00:32:09;;;;;;;5.45;2.7;;;;;;;-2.64;64.99512;95890.41;;;;
2020/01/07 00:33:09;;;;;;;5.45;2.7;;;;;;;-2.64;64.99512;95890.41;;;;
2020/01/07 00:34:10;;;;;;;5.45;2.7;;;;;;;-2.64;64.99512;95890.41;;;;
2020/01/07 00:35:10;;;;;;;5.45;2.7;;;;;;;-2.64;64.99512;95890.41;;;;
2020/01/07 00:36:11;;;;;;;5.45;2.7;;;;;;;-2.64;64.99512;95890.41;;;;
2020/01/07 00:37:11;;;;;;;5.45;2.7;;;;;;;-2.64;64.99512;95890.41;;;;
2020/01/07 00:38:12;;;;;;;5.45;2.7;;;;;;;-2.64;64.99512;95890.41;;;;
2020/01/07 00:39:12;;;;;;;5.45;2.7;;;;;;;-2.64;64.99512;95890.41;;;;
2020/01/07 00:40:12;;;;;;;5.45;2.7;;;;;;;-2.64;64.99512;95890.41;;;;
2020/01/07 00:41:13;;;;;;;5.45;2.7;;;;;;;-2.64;64.99512;95890.41;;;;
2020/01/07 00:42:13;;;;;;;4.35;2.5;;;;;;;-2.7;65.05957;95876.42;;;;
2020/01/07 00:43:14;;;;;;;4.35;2.5;;;;;;;-2.7;65.05957;95876.42;;;;
2020/01/07 00:44:14;;;;;;;4.35;2.5;;;;;;;-2.7;65.05957;95876.42;;;;
2020/01/07 00:45:15;;;;;;;4.35;2.5;;;;;;;-2.7;65.05957;95876.42;;;;
2020/01/07 00:46:15;;;;;;;4.35;2.5;;;;;;;-2.7;65.05957;95876.42;;;;
2020/01/07 00:47:16;;;;;;;4.35;2.5;;;;;;;-2.7;65.05957;95876.42;;;;
2020/01/07 00:48:16;;;;;;;4.35;2.5;;;;;;;-2.7;65.05957;95876.42;;;;
2020/01/07 00:49:17;;;;;;;4.35;2.5;;;;;;;-2.7;65.05957;95876.42;;;;
2020/01/07 00:50:17;;;;;;;4.35;2.5;;;;;;;-2.7;65.05957;95876.42;;;;
2020/01/07 00:51:18;;;;;;;4.35;2.5;;;;;;;-2.7;65.05957;95876.42;;;;
2020/01/07 00:52:19;;;;;;;4;2.299999;;;;;;;-2.67;65.26172;95889.37;;;;
2020/01/07 00:53:20;;;;;;;4;2.299999;;;;;;;-2.67;65.26172;95889.37;;;;
2020/01/07 00:54:20;;;;;;;4;2.299999;;;;;;;-2.67;65.26172;95889.37;;;;
2020/01/07 00:55:21;;;;;;;4;2.299999;;;;;;;-2.67;65.26172;95889.37;;;;
2020/01/07 00:56:21;;;;;;;4;2.299999;;;;;;;-2.67;65.26172;95889.37;;;;
2020/01/07 00:57:22;;;;;;;4;2.299999;;;;;;;-2.67;65.26172;95889.37;;;;
2020/01/07 00:58:22;;;;;;;4;2.299999;;;;;;;-2.67;65.26172;95889.37;;;;
2020/01/07 00:59:23;;;;;;;4;2.299999;;;;;;;-2.67;65.26172;95889.37;;;;
2020/01/07 01:00:23;;;;;;;4;2.299999;;;;;;;-2.67;65.26172;95889.37;;;;
2020/01/07 01:01:24;;;;;;;4;2.299999;;;;;;;-2.67;65.26172;95889.37;;;;
2020/01/07 01:02:40;;;;;;;4;2.299999;;;;;;;-2.67;65.26172;95889.37;;;;
2020/01/07 01:03:52;;;;;;;3.25;2.299999;;;;;;;-2.71;65.39063;95893.69;;;;
2020/01/07 01:04:53;;;;;;;3.25;2.299999;;;;;;;-2.71;65.39063;95893.69;;;;
2020/01/07 01:05:53;;;;;;;3.25;2.299999;;;;;;;-2.71;65.39063;95893.69;;;;
2020/01/07 01:06:54;;;;;;;3.25;2.299999;;;;;;;-2.71;65.39063;95893.69;;;;
2020/01/07 01:07:55;;;;;;;3.25;2.299999;;;;;;;-2.71;65.39063;95893.69;;;;
2020/01/07 01:08:55;;;;;;;3.25;2.299999;;;;;;;-2.71;65.39063;95893.69;;;;
2020/01/07 01:09:56;;;;;;;3.25;2.299999;;;;;;;-2.71;65.39063;95893.69;;;;
2020/01/07 01:10:56;;;;;;;3.25;2.299999;;;;;;;-2.71;65.39063;95893.69;;;;
2020/01/07 01:11:57;;;;;;;3.25;2.299999;;;;;;;-2.71;65.39063;95893.69;;;;
2020/01/07 01:12:58;;;;;;;3.25;2.299999;;;;;;;-2.71;65.39063;95893.69;;;;
2020/01/07 01:13:58;;;;;;;3.75;2.35;;;;;;;-2.68;65.49902;95912.8;;;;
2020/01/07 01:14:59;;;;;;;3.75;2.35;;;;;;;-2.68;65.49902;95912.8;;;;
2020/01/07 01:15:59;;;;;;;3.75;2.35;;;;;;;-2.68;65.49902;95912.8;;;;
2020/01/07 01:17:00;;;;;;;3.75;2.35;;;;;;;-2.68;65.49902;95912.8;;;;
2020/01/07 01:18:00;;;;;;;3.75;2.35;;;;;;;-2.68;65.49902;95912.8;;;;
2020/01/07 01:19:02;;;;;;;3.75;2.35;;;;;;;-2.68;65.49902;95912.8;;;;
2020/01/07 01:20:03;;;;;;;3.75;2.35;;;;;;;-2.68;65.49902;95912.8;;;;
2020/01/07 01:21:16;;;;;;;3.75;2.35;;;;;;;-2.68;65.49902;95912.8;;;;
2020/01/07 01:22:17;;;;;;;3.75;2.35;;;;;;;-2.68;65.49902;95912.8;;;;
2020/01/07 01:23:17;;;;;;;3.75;2.35;;;;;;;-2.68;65.49902;95912.8;;;;
2020/01/07 01:24:18;;;;;;;4.799999;2.750001;;;;;;;-2.75;65.62207;95910.37;;;;
2020/01/07 01:25:18;;;;;;;4.799999;2.750001;;;;;;;-2.75;65.62207;95910.37;;;;
2020/01/07 01:26:19;;;;;;;4.799999;2.750001;;;;;;;-2.75;65.62207;95910.37;;;;
2020/01/07 01:27:21;;;;;;;4.799999;2.750001;;;;;;;-2.75;65.62207;95910.37;;;;
2020/01/07 01:28:21;;;;;;;4.799999;2.750001;;;;;;;-2.75;65.62207;95910.37;;;;
2020/01/07 01:29:22;;;;;;;4.799999;2.750001;;;;;;;-2.75;65.62207;95910.37;;;;
2020/01/07 01:30:22;;;;;;;4.799999;2.750001;;;;;;;-2.75;65.62207;95910.37;;;;
2020/01/07 01:31:25;;;;;;;4.799999;2.750001;;;;;;;-2.75;65.62207;95910.37;;;;
2020/01/07 01:32:25;;;;;;;4.799999;2.750001;;;;;;;-2.75;65.62207;95910.37;;;;
2020/01/07 01:33:26;;;;;;;4.799999;2.750001;;;;;;;-2.75;65.62207;95910.37;;;;
2020/01/07 01:38:40;;;;;;;3.8;2.15;;;;;;;-2.73;65.69922;95920.73;;;;
2020/01/07 01:39:40;;;;;;;3.8;2.15;;;;;;;-2.73;65.69922;95920.73;;;;
2020/01/07 01:40:41;;;;;;;3.8;2.15;;;;;;;-2.73;65.69922;95920.73;;;;
2020/01/07 01:41:42;;;;;;;3.8;2.15;;;;;;;-2.73;65.69922;95920.73;;;;
2020/01/07 01:42:42;;;;;;;3.8;2.15;;;;;;;-2.73;65.69922;95920.73;;;;
2020/01/07 01:43:43;;;;;;;3.8;2.15;;;;;;;-2.73;65.69922;95920.73;;;;
2020/01/07 01:46:00;;;;;;;3.85;2.5;;;;;;;-2.79;65.83496;95925.75;;;;
2020/01/07 01:47:00;;;;;;;3.85;2.5;;;;;;;-2.79;65.83496;95925.75;;;;
2020/01/07 01:48:01;;;;;;;3.85;2.5;;;;;;;-2.79;65.83496;95925.75;;;;
2020/01/07 01:49:01;;;;;;;3.85;2.5;;;;;;;-2.79;65.83496;95925.75;;;;
2020/01/07 01:50:02;;;;;;;3.85;2.5;;;;;;;-2.79;65.83496;95925.75;;;;
2020/01/07 01:51:02;;;;;;;3.85;2.5;;;;;;;-2.79;65.83496;95925.75;;;;
2020/01/07 01:52:03;;;;;;;3.85;2.5;;;;;;;-2.79;65.83496;95925.75;;;;
2020/01/07 01:53:03;;;;;;;3.85;2.5;;;;;;;-2.79;65.83496;95925.75;;;;
2020/01/07 01:54:04;;;;;;;3.85;2.5;;;;;;;-2.79;65.83496;95925.75;;;;
2020/01/07 01:55:04;;;;;;;3.85;2.5;;;;;;;-2.79;65.83496;95925.75;;;;
2020/01/07 01:56:05;;;;;;;3.95;2.55;;;;;;;-2.79;65.99121;95930.62;;;;
2020/01/07 01:57:05;;;;;;;3.95;2.55;;;;;;;-2.79;65.99121;95930.62;;;;
2020/01/07 01:58:06;;;;;;;3.95;2.55;;;;;;;-2.79;65.99121;95930.62;;;;
2020/01/07 01:59:06;;;;;;;3.95;2.55;;;;;;;-2.79;65.99121;95930.62;;;;
2020/01/07 02:00:07;;;;;;;3.95;2.55;;;;;;;-2.79;65.99121;95930.62;;;;
2020/01/07 02:01:08;;;;;;;3.95;2.55;;;;;;;-2.79;65.99121;95930.62;;;;
2020/01/07 02:02:08;;;;;;;3.95;2.55;;;;;;;-2.79;65.99121;95930.62;;;;
2020/01/07 02:03:16;;;;;;;3.95;2.55;;;;;;;-2.79;65.99121;95930.62;;;;
2020/01/07 02:04:17;;;;;;;3.95;2.55;;;;;;;-2.79;65.99121;95930.62;;;;
2020/01/07 02:05:17;;;;;;;3.95;2.55;;;;;;;-2.79;65.99121;95930.62;;;;
2020/01/07 02:06:18;;;;;;;3.95;2.55;;;;;;;-2.79;65.99121;95930.62;;;;
2020/01/07 02:07:18;;;;;;;3.85;2.45;;;;;;;-2.88;66.12305;95927.01;;;;
2020/01/07 02:08:26;;;;;;;3.85;2.45;;;;;;;-2.88;66.12305;95927.01;;;;
2020/01/07 02:09:26;;;;;;;3.85;2.45;;;;;;;-2.88;66.12305;95927.01;;;;
2020/01/07 02:10:27;;;;;;;3.85;2.45;;;;;;;-2.88;66.12305;95927.01;;;;
2020/01/07 02:11:28;;;;;;;3.85;2.45;;;;;;;-2.88;66.12305;95927.01;;;;
2020/01/07 02:12:28;;;;;;;3.85;2.45;;;;;;;-2.88;66.12305;95927.01;;;;
2020/01/07 02:13:29;;;;;;;3.85;2.45;;;;;;;-2.88;66.12305;95927.01;;;;
2020/01/07 02:14:29;;;;;;;3.85;2.45;;;;;;;-2.88;66.12305;95927.01;;;;
2020/01/07 02:15:29;;;;;;;3.85;2.45;;;;;;;-2.88;66.12305;95927.01;;;;
2020/01/07 02:16:30;;;;;;;3.85;2.45;;;;;;;-2.88;66.12305;95927.01;;;;
2020/01/07 02:17:30;;;;;;;3.7;2.55;;;;;;;-2.89;66.19336;95946.03;;;;
2020/01/07 02:18:31;;;;;;;3.7;2.55;;;;;;;-2.89;66.19336;95946.03;;;;
2020/01/07 02:19:31;;;;;;;3.7;2.55;;;;;;;-2.89;66.19336;95946.03;;;;
2020/01/07 02:20:32;;;;;;;3.7;2.55;;;;;;;-2.89;66.19336;95946.03;;;;
2020/01/07 02:21:32;;;;;;;3.7;2.55;;;;;;;-2.89;66.19336;95946.03;;;;
2020/01/07 02:22:33;;;;;;;3.7;2.55;;;;;;;-2.89;66.19336;95946.03;;;;
2020/01/07 02:23:33;;;;;;;3.7;2.55;;;;;;;-2.89;66.19336;95946.03;;;;
2020/01/07 02:24:34;;;;;;;3.7;2.55;;;;;;;-2.89;66.19336;95946.03;;;;
2020/01/07 02:25:34;;;;;;;3.7;2.55;;;;;;;-2.89;66.19336;95946.03;;;;
2020/01/07 02:26:35;;;;;;;3.7;2.55;;;;;;;-2.89;66.19336;95946.03;;;;
2020/01/07 02:27:35;;;;;;;3.7;2.55;;;;;;;-2.89;66.19336;95946.03;;;;
2020/01/07 02:28:36;;;;;;;3.25;2.5;;;;;;;-3;66.39453;95928.52;;;;
2020/01/07 02:29:37;;;;;;;3.25;2.5;;;;;;;-3;66.39453;95928.52;;;;
2020/01/07 02:30:37;;;;;;;3.25;2.5;;;;;;;-3;66.39453;95928.52;;;;
2020/01/07 02:31:38;;;;;;;3.25;2.5;;;;;;;-3;66.39453;95928.52;;;;
2020/01/07 02:32:38;;;;;;;3.25;2.5;;;;;;;-3;66.39453;95928.52;;;;
2020/01/07 02:33:39;;;;;;;3.25;2.5;;;;;;;-3;66.39453;95928.52;;;;
2020/01/07 02:34:39;;;;;;;3.25;2.5;;;;;;;-3;66.39453;95928.52;;;;
2020/01/07 02:35:39;;;;;;;3.25;2.5;;;;;;;-3;66.39453;95928.52;;;;
2020/01/07 02:36:40;;;;;;;3.25;2.5;;;;;;;-3;66.39453;95928.52;;;;
2020/01/07 02:37:40;;;;;;;3.25;2.5;;;;;;;-3;66.39453;95928.52;;;;
2020/01/07 02:38:41;;;;;;;4.1;2.4;;;;;;;-3.01;66.50781;95926.44;;;;
2020/01/07 02:39:41;;;;;;;4.1;2.4;;;;;;;-3.01;66.50781;95926.44;;;;
2020/01/07 02:40:42;;;;;;;4.1;2.4;;;;;;;-3.01;66.50781;95926.44;;;;
2020/01/07 02:41:42;;;;;;;4.1;2.4;;;;;;;-3.01;66.50781;95926.44;;;;
2020/01/07 02:42:43;;;;;;;4.1;2.4;;;;;;;-3.01;66.50781;95926.44;;;;
2020/01/07 02:43:43;;;;;;;4.1;2.4;;;;;;;-3.01;66.50781;95926.44;;;;
2020/01/07 02:44:44;;;;;;;4.1;2.4;;;;;;;-3.01;66.50781;95926.44;;;;
2020/01/07 02:45:44;;;;;;;4.1;2.4;;;;;;;-3.01;66.50781;95926.44;;;;
2020/01/07 02:46:45;;;;;;;4.1;2.4;;;;;;;-3.01;66.50781;95926.44;;;;
2020/01/07 02:47:46;;;;;;;4.1;2.4;;;;;;;-3.01;66.50781;95926.44;;;;
2020/01/07 02:48:46;;;;;;;4.1;2.4;;;;;;;-3.01;66.50781;95926.44;;;;
2020/01/07 02:49:47;;;;;;;3.8;2.3;;;;;;;-3.05;66.61426;95930.8;;;;
2020/01/07 02:50:47;;;;;;;3.8;2.3;;;;;;;-3.05;66.61426;95930.8;;;;
2020/01/07 02:51:47;;;;;;;3.8;2.3;;;;;;;-3.05;66.61426;95930.8;;;;
2020/01/07 02:52:48;;;;;;;3.8;2.3;;;;;;;-3.05;66.61426;95930.8;;;;
2020/01/07 02:53:49;;;;;;;3.8;2.3;;;;;;;-3.05;66.61426;95930.8;;;;
2020/01/07 02:54:49;;;;;;;3.8;2.3;;;;;;;-3.05;66.61426;95930.8;;;;
2020/01/07 02:55:50;;;;;;;3.8;2.3;;;;;;;-3.05;66.61426;95930.8;;;;
2020/01/07 02:56:50;;;;;;;3.8;2.3;;;;;;;-3.05;66.61426;95930.8;;;;
2020/01/07 02:57:50;;;;;;;3.8;2.3;;;;;;;-3.05;66.61426;95930.8;;;;
2020/01/07 02:58:51;;;;;;;3.8;2.3;;;;;;;-3.05;66.61426;95930.8;;;;
2020/01/07 02:59:51;;;;;;;5;2.35;;;;;;;-3.08;66.78613;95932.83;;;;
2020/01/07 03:00:52;;;;;;;5;2.35;;;;;;;-3.08;66.78613;95932.83;;;;
2020/01/07 03:01:52;;;;;;;5;2.35;;;;;;;-3.08;66.78613;95932.83;;;;
2020/01/07 03:02:53;;;;;;;5;2.35;;;;;;;-3.08;66.78613;95932.83;;;;
2020/01/07 03:03:53;;;;;;;5;2.35;;;;;;;-3.08;66.78613;95932.83;;;;
2020/01/07 03:04:54;;;;;;;5;2.35;;;;;;;-3.08;66.78613;95932.83;;;;
2020/01/07 03:05:54;;;;;;;5;2.35;;;;;;;-3.08;66.78613;95932.83;;;;
2020/01/07 03:06:58;;;;;;;5;2.35;;;;;;;-3.08;66.78613;95932.83;;;;
2020/01/07 03:07:59;;;;;;;5;2.35;;;;;;;-3.08;66.78613;95932.83;;;;
2020/01/07 03:09:02;;;;;;;5;2.35;;;;;;;-3.08;66.78613;95932.83;;;;
2020/01/07 03:10:22;;;;;;;3;2.15;;;;;;;-3.09;67.11621;95946.59;;;;
2020/01/07 03:11:22;;;;;;;3;2.15;;;;;;;-3.09;67.11621;95946.59;;;;
2020/01/07 03:12:23;;;;;;;3;2.15;;;;;;;-3.09;67.11621;95946.59;;;;
2020/01/07 03:13:23;;;;;;;3;2.15;;;;;;;-3.09;67.11621;95946.59;;;;
2020/01/07 03:14:24;;;;;;;3;2.15;;;;;;;-3.09;67.11621;95946.59;;;;
2020/01/07 03:15:24;;;;;;;3;2.15;;;;;;;-3.09;67.11621;95946.59;;;;
2020/01/07 03:16:25;;;;;;;3;2.15;;;;;;;-3.09;67.11621;95946.59;;;;
2020/01/07 03:17:25;;;;;;;3;2.15;;;;;;;-3.09;67.11621;95946.59;;;;
2020/01/07 03:18:26;;;;;;;3;2.15;;;;;;;-3.09;67.11621;95946.59;;;;
2020/01/07 03:19:27;;;;;;;3;2.15;;;;;;;-3.09;67.11621;95946.59;;;;
2020/01/07 03:21:07;;;;;;;3;2.15;;;;;;;-3.09;67.11621;95946.59;;;;
2020/01/07 03:22:43;;;;;;;3.3;2.15;;;;;;;-3.07;67.05859;95936.22;;;;
2020/01/07 03:23:44;;;;;;;3.3;2.15;;;;;;;-3.07;67.05859;95936.22;;;;
2020/01/07 03:24:44;;;;;;;3.3;2.15;;;;;;;-3.07;67.05859;95936.22;;;;
2020/01/07 03:25:45;;;;;;;3.3;2.15;;;;;;;-3.07;67.05859;95936.22;;;;
2020/01/07 03:26:45;;;;;;;3.3;2.15;;;;;;;-3.07;67.05859;95936.22;;;;
2020/01/07 03:27:46;;;;;;;3.3;2.15;;;;;;;-3.07;67.05859;95936.22;;;;
2020/01/07 03:28:46;;;;;;;3.3;2.15;;;;;;;-3.07;67.05859;95936.22;;;;
2020/01/07 03:29:47;;;;;;;3.3;2.15;;;;;;;-3.07;67.05859;95936.22;;;;
2020/01/07 03:30:47;;;;;;;3.3;2.15;;;;;;;-3.07;67.05859;95936.22;;;;
2020/01/07 03:31:48;;;;;;;3.25;2.1;;;;;;;-3.11;67.3418;95964.37;;;;
2020/01/07 03:32:48;;;;;;;3.25;2.1;;;;;;;-3.11;67.3418;95964.37;;;;
2020/01/07 03:33:48;;;;;;;3.25;2.1;;;;;;;-3.11;67.3418;95964.37;;;;
2020/01/07 03:34:49;;;;;;;3.25;2.1;;;;;;;-3.11;67.3418;95964.37;;;;
2020/01/07 03:35:49;;;;;;;3.25;2.1;;;;;;;-3.11;67.3418;95964.37;;;;
2020/01/07 03:36:50;;;;;;;3.25;2.1;;;;;;;-3.11;67.3418;95964.37;;;;
2020/01/07 03:37:50;;;;;;;3.25;2.1;;;;;;;-3.11;67.3418;95964.37;;;;
2020/01/07 03:38:51;;;;;;;3.25;2.1;;;;;;;-3.11;67.3418;95964.37;;;;
2020/01/07 03:39:51;;;;;;;3.25;2.1;;;;;;;-3.11;67.3418;95964.37;;;;
2020/01/07 03:40:52;;;;;;;3.25;2.1;;;;;;;-3.11;67.3418;95964.37;;;;
2020/01/07 03:41:52;;;;;;;3.25;2.1;;;;;;;-3.11;67.3418;95964.37;;;;
2020/01/07 03:42:53;;;;;;;3;2.15;;;;;;;-3.08;67.55469;95968.47;;;;
2020/01/07 03:43:54;;;;;;;3;2.15;;;;;;;-3.08;67.55469;95968.47;;;;
2020/01/07 03:44:56;;;;;;;3;2.15;;;;;;;-3.08;67.55469;95968.47;;;;
2020/01/07 03:46:01;;;;;;;3;2.15;;;;;;;-3.08;67.55469;95968.47;;;;
2020/01/07 03:47:03;;;;;;;3;2.15;;;;;;;-3.08;67.55469;95968.47;;;;
2020/01/07 03:48:06;;;;;;;3;2.15;;;;;;;-3.08;67.55469;95968.47;;;;
2020/01/07 03:49:09;;;;;;;3;2.15;;;;;;;-3.08;67.55469;95968.47;;;;
2020/01/07 03:50:10;;;;;;;3;2.15;;;;;;;-3.08;67.55469;95968.47;;;;
2020/01/07 03:51:11;;;;;;;3;2.15;;;;;;;-3.08;67.55469;95968.47;;;;
2020/01/07 03:52:11;;;;;;;3;2.15;;;;;;;-3.08;67.55469;95968.47;;;;
2020/01/07 03:53:14;;;;;;;3.05;2.4;;;;;;;-3.08;67.6709;95966.25;;;;
2020/01/07 03:54:16;;;;;;;3.05;2.4;;;;;;;-3.08;67.6709;95966.25;;;;
2020/01/07 03:55:17;;;;;;;3.05;2.4;;;;;;;-3.08;67.6709;95966.25;;;;
2020/01/07 03:56:18;;;;;;;3.05;2.4;;;;;;;-3.08;67.6709;95966.25;;;;
2020/01/07 03:57:18;;;;;;;3.05;2.4;;;;;;;-3.08;67.6709;95966.25;;;;
2020/01/07 03:58:19;;;;;;;3.05;2.4;;;;;;;-3.08;67.6709;95966.25;;;;
2020/01/07 03:59:19;;;;;;;3.05;2.4;;;;;;;-3.08;67.6709;95966.25;;;;
2020/01/07 04:00:20;;;;;;;3.05;2.4;;;;;;;-3.08;67.6709;95966.25;;;;
2020/01/07 04:01:20;;;;;;;3.05;2.4;;;;;;;-3.08;67.6709;95966.25;;;;
2020/01/07 04:02:21;;;;;;;3.05;2.4;;;;;;;-3.08;67.6709;95966.25;;;;
2020/01/07 04:03:22;;;;;;;3.95;2.35;;;;;;;-2.85;67.76953;95979.13;;;;
2020/01/07 04:04:22;;;;;;;3.95;2.35;;;;;;;-2.85;67.76953;95979.13;;;;
2020/01/07 04:05:23;;;;;;;3.95;2.35;;;;;;;-2.85;67.76953;95979.13;;;;
2020/01/07 04:06:23;;;;;;;3.95;2.35;;;;;;;-2.85;67.76953;95979.13;;;;
2020/01/07 04:07:24;;;;;;;3.95;2.35;;;;;;;-2.85;67.76953;95979.13;;;;
2020/01/07 04:08:24;;;;;;;3.95;2.35;;;;;;;-2.85;67.76953;95979.13;;;;
2020/01/07 04:09:25;;;;;;;3.95;2.35;;;;;;;-2.85;67.76953;95979.13;;;;
2020/01/07 04:10:25;;;;;;;3.95;2.35;;;;;;;-2.85;67.76953;95979.13;;;;
2020/01/07 04:11:26;;;;;;;3.95;2.35;;;;;;;-2.85;67.76953;95979.13;;;;
2020/01/07 04:12:27;;;;;;;3.95;2.35;;;;;;;-2.85;67.76953;95979.13;;;;
2020/01/07 04:13:27;;;;;;;3.95;2.35;;;;;;;-2.85;67.76953;95979.13;;;;
2020/01/07 04:14:28;;;;;;;2.7;2.25;;;;;;;-2.67;67.88086;96008.72;;;;
2020/01/07 04:15:28;;;;;;;2.7;2.25;;;;;;;-2.67;67.88086;96008.72;;;;
2020/01/07 04:16:29;;;;;;;2.7;2.25;;;;;;;-2.67;67.88086;96008.72;;;;
2020/01/07 04:17:29;;;;;;;2.7;2.25;;;;;;;-2.67;67.88086;96008.72;;;;
2020/01/07 04:18:30;;;;;;;2.7;2.25;;;;;;;-2.67;67.88086;96008.72;;;;
2020/01/07 04:19:30;;;;;;;2.7;2.25;;;;;;;-2.67;67.88086;96008.72;;;;
2020/01/07 04:20:31;;;;;;;2.7;2.25;;;;;;;-2.67;67.88086;96008.72;;;;
2020/01/07 04:21:31;;;;;;;2.7;2.25;;;;;;;-2.67;67.88086;96008.72;;;;
2020/01/07 04:22:32;;;;;;;2.7;2.25;;;;;;;-2.67;67.88086;96008.72;;;;
2020/01/07 04:23:33;;;;;;;2.7;2.25;;;;;;;-2.67;67.88086;96008.72;;;;
2020/01/07 04:24:33;;;;;;;3.55;2.15;;;;;;;-2.52;67.83105;96010.05;;;;
2020/01/07 04:25:34;;;;;;;3.55;2.15;;;;;;;-2.52;67.83105;96010.05;;;;
2020/01/07 04:26:34;;;;;;;3.55;2.15;;;;;;;-2.52;67.83105;96010.05;;;;
2020/01/07 04:27:35;;;;;;;3.55;2.15;;;;;;;-2.52;67.83105;96010.05;;;;
2020/01/07 04:28:35;;;;;;;3.55;2.15;;;;;;;-2.52;67.83105;96010.05;;;;
2020/01/07 04:29:36;;;;;;;3.55;2.15;;;;;;;-2.52;67.83105;96010.05;;;;
2020/01/07 04:30:36;;;;;;;3.55;2.15;;;;;;;-2.52;67.83105;96010.05;;;;
2020/01/07 04:31:37;;;;;;;3.55;2.15;;;;;;;-2.52;67.83105;96010.05;;;;
2020/01/07 04:32:37;;;;;;;3.55;2.15;;;;;;;-2.52;67.83105;96010.05;;;;
2020/01/07 04:33:38;;;;;;;3.55;2.15;;;;;;;-2.52;67.83105;96010.05;;;;
2020/01/07 04:34:39;;;;;;;3.55;2.15;;;;;;;-2.52;67.83105;96010.05;;;;
2020/01/07 04:35:39;;;;;;;3.5;2.25;;;;;;;-2.59;67.96484;96007.19;;;;
2020/01/07 04:36:40;;;;;;;3.5;2.25;;;;;;;-2.59;67.96484;96007.19;;;;
2020/01/07 04:37:40;;;;;;;3.5;2.25;;;;;;;-2.59;67.96484;96007.19;;;;
2020/01/07 04:38:41;;;;;;;3.5;2.25;;;;;;;-2.59;67.96484;96007.19;;;;
2020/01/07 04:39:41;;;;;;;3.5;2.25;;;;;;;-2.59;67.96484;96007.19;;;;
2020/01/07 04:40:42;;;;;;;3.5;2.25;;;;;;;-2.59;67.96484;96007.19;;;;
2020/01/07 04:41:42;;;;;;;3.5;2.25;;;;;;;-2.59;67.96484;96007.19;;;;
2020/01/07 04:42:43;;;;;;;3.5;2.25;;;;;;;-2.59;67.96484;96007.19;;;;
2020/01/07 04:43:43;;;;;;;3.5;2.25;;;;;;;-2.59;67.96484;96007.19;;;;
2020/01/07 04:44:44;;;;;;;3.5;2.25;;;;;;;-2.59;67.96484;96007.19;;;;
2020/01/07 04:45:44;;;;;;;3.9;2.6;;;;;;;-2.65;68.31055;96008.99;;;;
2020/01/07 04:46:46;;;;;;;3.9;2.6;;;;;;;-2.65;68.31055;96008.99;;;;
2020/01/07 04:47:47;;;;;;;3.9;2.6;;;;;;;-2.65;68.31055;96008.99;;;;
2020/01/07 04:48:48;;;;;;;3.9;2.6;;;;;;;-2.65;68.31055;96008.99;;;;
2020/01/07 04:49:50;;;;;;;3.9;2.6;;;;;;;-2.65;68.31055;96008.99;;;;
2020/01/07 04:50:50;;;;;;;3.9;2.6;;;;;;;-2.65;68.31055;96008.99;;;;
2020/01/07 04:51:52;;;;;;;3.9;2.6;;;;;;;-2.65;68.31055;96008.99;;;;
2020/01/07 04:53:02;;;;;;;3.9;2.6;;;;;;;-2.65;68.31055;96008.99;;;;
2020/01/07 04:54:03;;;;;;;3.9;2.6;;;;;;;-2.65;68.31055;96008.99;;;;
2020/01/07 04:55:05;;;;;;;3.9;2.6;;;;;;;-2.65;68.31055;96008.99;;;;
2020/01/07 04:56:08;;;;;;;3.9;2.6;;;;;;;-2.65;68.31055;96008.99;;;;
2020/01/07 04:57:17;;;;;;;3.4;2.55;;;;;;;-2.76;68.53125;96001.19;;;;
2020/01/07 04:58:20;;;;;;;3.4;2.55;;;;;;;-2.76;68.53125;96001.19;;;;
2020/01/07 04:59:27;;;;;;;3.4;2.55;;;;;;;-2.76;68.53125;96001.19;;;;
2020/01/07 05:00:27;;;;;;;3.4;2.55;;;;;;;-2.76;68.53125;96001.19;;;;
2020/01/07 05:01:28;;;;;;;3.4;2.55;;;;;;;-2.76;68.53125;96001.19;;;;
2020/01/07 05:02:29;;;;;;;3.4;2.55;;;;;;;-2.76;68.53125;96001.19;;;;
2020/01/07 05:03:29;;;;;;;3.4;2.55;;;;;;;-2.76;68.53125;96001.19;;;;
2020/01/07 05:04:30;;;;;;;3.4;2.55;;;;;;;-2.76;68.53125;96001.19;;;;
2020/01/07 05:05:30;;;;;;;3.4;2.55;;;;;;;-2.76;68.53125;96001.19;;;;
2020/01/07 05:06:32;;;;;;;3.4;2.55;;;;;;;-2.76;68.53125;96001.19;;;;
2020/01/07 05:07:33;;;;;;;4.3;2.85;;;;;;;-2.81;68.7207;95999.03;;;;
2020/01/07 05:08:33;;;;;;;4.3;2.85;;;;;;;-2.81;68.7207;95999.03;;;;
2020/01/07 05:09:34;;;;;;;4.3;2.85;;;;;;;-2.81;68.7207;95999.03;;;;
2020/01/07 05:10:34;;;;;;;4.3;2.85;;;;;;;-2.81;68.7207;95999.03;;;;
2020/01/07 05:11:35;;;;;;;4.3;2.85;;;;;;;-2.81;68.7207;95999.03;;;;
2020/01/07 05:12:35;;;;;;;4.3;2.85;;;;;;;-2.81;68.7207;95999.03;;;;
2020/01/07 05:13:36;;;;;;;4.3;2.85;;;;;;;-2.81;68.7207;95999.03;;;;
2020/01/07 05:14:36;;;;;;;4.3;2.85;;;;;;;-2.81;68.7207;95999.03;;;;
2020/01/07 05:15:37;;;;;;;4.3;2.85;;;;;;;-2.81;68.7207;95999.03;;;;
2020/01/07 05:16:37;;;;;;;4.3;2.85;;;;;;;-2.81;68.7207;95999.03;;;;
2020/01/07 05:17:37;;;;;;;3.7;2.75;;;;;;;-2.87;68.91797;96005.27;;;;
2020/01/07 05:18:38;;;;;;;3.7;2.75;;;;;;;-2.87;68.91797;96005.27;;;;
2020/01/07 05:19:38;;;;;;;3.7;2.75;;;;;;;-2.87;68.91797;96005.27;;;;
2020/01/07 05:20:39;;;;;;;3.7;2.75;;;;;;;-2.87;68.91797;96005.27;;;;
2020/01/07 05:21:39;;;;;;;3.7;2.75;;;;;;;-2.87;68.91797;96005.27;;;;
2020/01/07 05:22:40;;;;;;;3.7;2.75;;;;;;;-2.87;68.91797;96005.27;;;;
2020/01/07 05:23:40;;;;;;;3.7;2.75;;;;;;;-2.87;68.91797;96005.27;;;;
2020/01/07 05:24:41;;;;;;;3.7;2.75;;;;;;;-2.87;68.91797;96005.27;;;;
2020/01/07 05:25:42;;;;;;;3.7;2.75;;;;;;;-2.87;68.91797;96005.27;;;;
2020/01/07 05:26:43;;;;;;;3.7;2.75;;;;;;;-2.87;68.91797;96005.27;;;;
2020/01/07 05:27:45;;;;;;;3.7;2.75;;;;;;;-2.87;68.91797;96005.27;;;;
2020/01/07 05:28:46;;;;;;;3.7;2.75;;;;;;;-2.87;68.91797;96005.27;;;;
2020/01/07 05:29:48;;;;;;;3.7;2.75;;;;;;;-2.87;68.91797;96005.27;;;;
2020/01/07 05:31:05;;;;;;;3.7;2.75;;;;;;;-2.87;68.91797;96005.27;;;;
2020/01/07 05:35:30;;;;;;;3.7;2.75;;;;;;;-2.87;68.91797;96005.27;;;;
2020/01/07 05:36:31;;;;;;;3.7;2.75;;;;;;;-2.87;68.91797;96005.27;;;;
2020/01/07 05:37:31;;;;;;;3.7;2.75;;;;;;;-2.87;68.91797;96005.27;;;;
2020/01/07 05:38:32;;;;;;;3.7;2.75;;;;;;;-2.87;68.91797;96005.27;;;;
2020/01/07 05:39:32;;;;;;;4.100001;3.25;;;;;;;-2.32;68.77832;96020.54;;;;
2020/01/07 05:40:33;;;;;;;4.100001;3.25;;;;;;;-2.32;68.77832;96020.54;;;;
2020/01/07 05:41:33;;;;;;;4.100001;3.25;;;;;;;-2.32;68.77832;96020.54;;;;
2020/01/07 05:42:34;;;;;;;4.100001;3.25;;;;;;;-2.32;68.77832;96020.54;;;;
2020/01/07 05:43:34;;;;;;;4.100001;3.25;;;;;;;-2.32;68.77832;96020.54;;;;
2020/01/07 05:44:35;;;;;;;4.100001;3.25;;;;;;;-2.32;68.77832;96020.54;;;;
2020/01/07 05:45:35;;;;;;;4.100001;3.25;;;;;;;-2.32;68.77832;96020.54;;;;
2020/01/07 05:46:36;;;;;;;4.100001;3.25;;;;;;;-2.32;68.77832;96020.54;;;;
2020/01/07 05:47:36;;;;;;;4.100001;3.25;;;;;;;-2.32;68.77832;96020.54;;;;
2020/01/07 05:48:37;;;;;;;4.100001;3.25;;;;;;;-2.32;68.77832;96020.54;;;;
2020/01/07 05:49:37;;;;;;;4.100001;3.25;;;;;;;-2.32;68.77832;96020.54;;;;
2020/01/07 05:50:37;;;;;;;5.749999;4.249999;;;;;;;-1.94;68.88281;96024.06;;;;
2020/01/07 05:51:38;;;;;;;5.749999;4.249999;;;;;;;-1.94;68.88281;96024.06;;;;
2020/01/07 05:52:38;;;;;;;5.749999;4.249999;;;;;;;-1.94;68.88281;96024.06;;;;
2020/01/07 05:53:39;;;;;;;5.749999;4.249999;;;;;;;-1.94;68.88281;96024.06;;;;
2020/01/07 05:54:39;;;;;;;5.749999;4.249999;;;;;;;-1.94;68.88281;96024.06;;;;
2020/01/07 05:55:40;;;;;;;5.749999;4.249999;;;;;;;-1.94;68.88281;96024.06;;;;
2020/01/07 05:56:40;;;;;;;5.749999;4.249999;;;;;;;-1.94;68.88281;96024.06;;;;